Time;durP1;ratioP1;P1;durP2;ratioP2;P2;SDS_P1;SDS_P2;PMS_P1;PMS_P2;Temp;Humidity;BMP_temperature;BMP_pressure;BME280_temperature;BME280_humidity;BME280_pressure;Samples;Min_cycle;Max_cycle;Signal;HPM_P1;HPM_P2
2022/04/13 00:03:08;;;;;;;14.75;7.90;;;7.40;34.20;;;;;;5046060;28;20068;-65
2022/04/13 00:06:38;;;;;;;12.05;7.10;;;7.40;33.80;;;;;;5032527;28;20041;-65
2022/04/13 00:09:58;;;;;;;13.35;8.27;;;7.30;34.60;;;;;;5047429;28;20465;-64
2022/04/13 00:13:24;;;;;;;16.88;8.23;;;7.40;34.10;;;;;;5045683;28;20095;-65
2022/04/13 00:16:50;;;;;;;16.52;8.27;;;7.30;34.50;;;;;;5040713;28;20543;-64
2022/04/13 00:20:14;;;;;;;16.75;8.35;;;7.30;35.10;;;;;;5046306;28;20064;-64
2022/04/13 00:23:40;;;;;;;16.13;8.40;;;7.30;34.90;;;;;;5046122;28;20377;-65
2022/04/13 00:27:05;;;;;;;17.05;8.60;;;7.30;34.90;;;;;;5046687;28;20040;-65
2022/04/13 00:30:30;;;;;;;17.83;8.50;;;7.30;34.60;;;;;;5044861;28;20032;-64
2022/04/13 00:33:56;;;;;;;11.65;7.18;;;7.30;34.60;;;;;;5036130;28;20037;-64
2022/04/13 00:36:41;;;;;;;13.43;8.55;;;7.30;34.90;;;;;;5045752;28;20135;-68
2022/04/13 00:39:07;;;;;;;18.50;9.25;;;7.20;35.00;;;;;;5048174;28;20116;-68
2022/04/13 00:41:32;;;;;;;13.90;6.88;;;7.20;35.00;;;;;;5033107;28;20033;-68
2022/04/13 00:44:06;;;;;;;11.93;7.50;;;7.10;35.30;;;;;;5048213;28;20045;-69
2022/04/13 00:46:32;;;;;;;13.32;8.45;;;7.10;36.50;;;;;;5036255;28;20047;-68
2022/04/13 00:48:57;;;;;;;13.38;8.38;;;7.10;35.90;;;;;;5039437;28;20538;-69
2022/04/13 00:51:23;;;;;;;13.20;7.78;;;7.10;35.70;;;;;;5042118;28;20044;-68
2022/04/13 00:53:51;;;;;;;18.98;9.32;;;7.10;36.40;;;;;;5042978;28;20091;-69
2022/04/13 00:56:23;;;;;;;13.30;8.00;;;7.00;36.90;;;;;;5034914;28;20045;-68
2022/04/13 00:58:52;;;;;;;12.52;8.07;;;7.00;37.20;;;;;;5037150;28;20591;-69
2022/04/13 01:01:18;;;;;;;13.68;8.15;;;7.00;37.10;;;;;;5035271;28;20037;-68
2022/04/13 01:04:23;;;;;;;22.20;8.10;;;7.00;37.60;;;;;;5047864;28;20079;-68
2022/04/13 01:07:49;;;;;;;16.17;8.73;;;6.90;37.90;;;;;;5046451;28;20037;-69
2022/04/13 01:11:14;;;;;;;18.42;9.35;;;6.90;37.80;;;;;;5045413;28;20044;-69
2022/04/13 01:14:40;;;;;;;16.52;7.72;;;6.90;38.00;;;;;;5043801;28;20228;-69
2022/04/13 01:18:05;;;;;;;13.23;7.50;;;6.80;39.10;;;;;;5045076;28;20080;-67
2022/04/13 01:21:30;;;;;;;15.35;8.63;;;6.70;39.40;;;;;;5025607;28;20561;-67
2022/04/13 01:24:56;;;;;;;16.55;7.97;;;6.80;39.30;;;;;;5047176;28;20164;-66
2022/04/13 01:28:21;;;;;;;14.52;8.60;;;6.70;39.60;;;;;;5040397;28;20500;-67
2022/04/13 01:31:47;;;;;;;13.55;8.40;;;6.70;39.80;;;;;;5034329;28;20043;-67
2022/04/13 01:35:12;;;;;;;19.65;9.05;;;6.70;40.50;;;;;;5044361;28;20049;-67
2022/04/13 01:38:37;;;;;;;13.32;8.73;;;6.70;40.90;;;;;;5046941;28;20047;-67
2022/04/13 01:42:02;;;;;;;15.48;7.68;;;6.60;40.90;;;;;;5038761;28;20037;-67
2022/04/13 01:45:28;;;;;;;16.25;7.70;;;6.60;41.30;;;;;;5040401;28;20037;-67
2022/04/13 01:48:53;;;;;;;17.27;8.13;;;6.50;41.60;;;;;;5044661;28;20036;-68
2022/04/13 01:52:19;;;;;;;14.43;8.20;;;6.50;42.20;;;;;;5030823;28;20098;-67
2022/04/13 01:55:47;;;;;;;17.45;8.30;;;6.50;42.50;;;;;;5044571;28;20036;-67
2022/04/13 01:59:10;;;;;;;18.58;8.40;;;6.50;42.50;;;;;;5039992;28;20043;-67
2022/04/13 02:02:35;;;;;;;15.02;7.90;;;6.40;42.60;;;;;;5043146;28;20083;-67
2022/04/13 02:06:00;;;;;;;13.00;7.40;;;6.30;43.10;;;;;;5019757;28;20029;-68
2022/04/13 02:09:26;;;;;;;13.27;8.32;;;6.20;43.30;;;;;;5046366;28;20041;-67
2022/04/13 02:12:52;;;;;;;13.57;7.13;;;6.20;43.60;;;;;;5013751;28;20044;-66
2022/04/13 02:16:16;;;;;;;15.15;7.70;;;6.10;44.00;;;;;;5032631;28;20513;-67
2022/04/13 02:19:42;;;;;;;12.38;6.78;;;6.10;44.60;;;;;;5036535;28;20037;-67
2022/04/13 02:23:07;;;;;;;18.95;7.65;;;6.10;43.90;;;;;;5040536;28;20087;-67
2022/04/13 02:26:32;;;;;;;11.48;6.80;;;6.10;43.50;;;;;;5008740;28;20072;-66
2022/04/13 02:29:38;;;;;;;17.27;8.35;;;6.10;44.30;;;;;;5009113;28;20030;-67
2022/04/13 02:32:04;;;;;;;13.38;7.78;;;6.10;44.90;;;;;;5008193;28;20121;-68
2022/04/13 02:34:30;;;;;;;18.23;7.97;;;6.10;44.30;;;;;;5008671;28;20041;-67
2022/04/13 02:36:56;;;;;;;14.05;7.72;;;6.00;44.10;;;;;;5009431;28;20033;-67
2022/04/13 02:39:22;;;;;;;17.77;7.72;;;6.00;43.70;;;;;;5009124;28;20478;-67
2022/04/13 02:41:48;;;;;;;14.38;7.43;;;5.90;45.00;;;;;;5009211;28;20092;-68
2022/04/13 02:44:13;;;;;;;14.60;8.18;;;5.90;44.20;;;;;;5009276;28;20485;-67
2022/04/13 02:46:39;;;;;;;15.23;7.43;;;5.80;46.20;;;;;;5009276;28;20032;-67
2022/04/13 02:49:05;;;;;;;15.32;8.60;;;5.80;45.10;;;;;;5009080;28;20133;-67
2022/04/13 02:51:31;;;;;;;18.08;7.88;;;5.80;45.80;;;;;;5009258;28;20104;-67
2022/04/13 02:53:56;;;;;;;13.82;8.52;;;5.70;46.80;;;;;;5009375;28;20041;-67
2022/04/13 02:56:22;;;;;;;13.57;8.07;;;5.80;47.30;;;;;;5008956;28;20424;-67
2022/04/13 02:58:47;;;;;;;17.73;7.90;;;5.80;47.50;;;;;;5009187;28;20478;-67
2022/04/13 03:01:13;;;;;;;16.17;7.90;;;5.70;48.40;;;;;;5009289;28;20034;-66
2022/04/13 03:03:38;;;;;;;13.55;7.50;;;5.70;47.40;;;;;;5009093;28;20061;-68
2022/04/13 03:06:03;;;;;;;14.68;7.97;;;5.60;47.90;;;;;;5009007;28;20030;-67
2022/04/13 03:08:29;;;;;;;14.75;7.07;;;5.60;47.80;;;;;;5017672;28;20037;-67
2022/04/13 03:10:55;;;;;;;14.98;8.52;;;5.50;47.30;;;;;;5048683;28;20021;-67
2022/04/13 03:13:21;;;;;;;12.82;7.57;;;5.50;50.20;;;;;;5042457;28;20061;-64
2022/04/13 03:16:26;;;;;;;13.23;7.13;;;5.40;48.10;;;;;;5025328;28;20041;-64
2022/04/13 03:19:52;;;;;;;15.27;7.63;;;5.40;50.00;;;;;;5026838;28;20421;-64
2022/04/13 03:23:17;;;;;;;12.82;6.97;;;5.40;50.30;;;;;;5028556;28;20033;-64
2022/04/13 03:26:42;;;;;;;14.82;7.30;;;5.30;50.20;;;;;;5008627;28;20030;-70
2022/04/13 03:30:07;;;;;;;14.77;7.85;;;5.30;51.70;;;;;;5023787;28;20029;-69
2022/04/13 03:33:33;;;;;;;18.70;8.32;;;5.40;51.20;;;;;;5030323;28;20033;-69
2022/04/13 03:36:58;;;;;;;17.95;7.70;;;5.30;50.60;;;;;;5031924;28;20189;-69
2022/04/13 03:40:24;;;;;;;12.68;7.90;;;5.30;51.20;;;;;;5030375;28;20040;-69
2022/04/13 03:43:49;;;;;;;15.07;7.88;;;5.20;53.30;;;;;;5030186;28;20041;-69
2022/04/13 03:47:15;;;;;;;15.35;8.80;;;5.30;53.40;;;;;;5031819;28;20031;-69
2022/04/13 03:50:40;;;;;;;15.63;8.32;;;5.30;53.80;;;;;;5029931;28;20056;-69
2022/04/13 03:54:05;;;;;;;15.15;8.75;;;5.20;54.40;;;;;;5029940;28;20037;-69
2022/04/13 03:57:31;;;;;;;16.48;8.98;;;5.20;54.20;;;;;;5031663;28;20386;-69
2022/04/13 04:00:56;;;;;;;14.98;9.63;;;5.20;54.10;;;;;;5031593;28;20076;-69
2022/04/13 04:04:21;;;;;;;17.45;8.90;;;5.30;53.70;;;;;;5029733;28;20038;-70
2022/04/13 04:07:48;;;;;;;17.40;8.93;;;5.30;54.00;;;;;;5031578;28;20033;-70
2022/04/13 04:11:12;;;;;;;15.75;8.60;;;5.30;53.50;;;;;;5030923;28;20044;-69
2022/04/13 04:14:37;;;;;;;23.02;9.70;;;5.30;53.10;;;;;;5041895;28;20420;-69
2022/04/13 04:18:03;;;;;;;15.70;8.82;;;5.30;53.70;;;;;;5047455;28;20045;-69
2022/04/13 04:21:28;;;;;;;17.02;8.90;;;5.40;53.60;;;;;;5045457;28;20034;-69
2022/04/13 04:24:54;;;;;;;17.88;8.95;;;5.40;54.10;;;;;;5034400;28;20099;-69
2022/04/13 04:28:19;;;;;;;13.73;8.32;;;5.50;53.20;;;;;;5037307;28;20623;-70
2022/04/13 04:31:50;;;;;;;18.33;9.25;;;5.60;53.00;;;;;;5040127;28;20033;-70
2022/04/13 04:35:15;;;;;;;17.45;9.32;;;5.60;52.20;;;;;;5048878;28;20076;-70
2022/04/13 04:38:41;;;;;;;15.98;9.07;;;5.70;51.20;;;;;;5043206;28;20033;-70
2022/04/13 04:42:06;;;;;;;15.07;7.57;;;5.90;50.20;;;;;;5011209;28;20117;-69
2022/04/13 04:45:34;;;;;;;14.48;7.57;;;6.00;49.60;;;;;;5039655;28;20458;-69
2022/04/13 04:48:42;;;;;;;;;;;6.10;48.80;;;;;;5029714;28;20038;-69
2022/04/13 04:52:05;;;;;;;16.95;9.07;;;6.30;48.20;;;;;;5035996;28;19920;-70
2022/04/13 04:55:31;;;;;;;16.00;7.85;;;6.40;47.10;;;;;;5044959;28;20077;-69
2022/04/13 04:58:56;;;;;;;16.08;9.23;;;6.70;45.50;;;;;;5027458;28;20401;-69
2022/04/13 05:02:21;;;;;;;17.48;8.82;;;7.00;43.60;;;;;;5039375;28;20045;-69
2022/04/13 05:05:47;;;;;;;15.60;8.60;;;7.20;42.50;;;;;;5046850;28;20515;-70
2022/04/13 05:09:12;;;;;;;14.27;9.38;;;7.50;39.80;;;;;;5030623;28;20112;-69
2022/04/13 05:12:37;;;;;;;17.73;9.35;;;7.90;38.40;;;;;;5044745;28;20071;-70
2022/04/13 05:16:03;;;;;;;16.30;9.40;;;8.20;36.60;;;;;;5028447;28;20042;-69
2022/04/13 05:19:28;;;;;;;17.65;9.35;;;8.50;34.80;;;;;;5028289;28;20100;-70
2022/04/13 05:22:53;;;;;;;18.23;9.75;;;8.90;34.10;;;;;;5037083;28;20520;-69
2022/04/13 05:26:19;;;;;;;17.52;9.65;;;9.30;31.90;;;;;;5035466;28;20069;-70
2022/04/13 05:29:44;;;;;;;16.65;8.82;;;9.70;29.80;;;;;;5041534;28;20045;-69
2022/04/13 05:33:13;;;;;;;18.17;8.90;;;10.10;29.30;;;;;;5036847;28;20036;-68
2022/04/13 05:36:38;;;;;;;18.20;9.30;;;10.60;27.10;;;;;;5031418;28;20533;-69
2022/04/13 05:40:03;;;;;;;14.07;9.15;;;10.80;25.80;;;;;;5027493;28;20086;-69
2022/04/13 05:43:33;;;;;;;20.00;9.95;;;11.00;26.70;;;;;;5020791;28;20068;-69
2022/04/13 05:46:56;;;;;;;16.77;10.27;;;11.10;25.80;;;;;;5010137;28;20038;-68
2022/04/13 05:50:22;;;;;;;18.85;9.23;;;11.20;24.70;;;;;;5029276;28;20116;-69
2022/04/13 05:53:47;;;;;;;16.38;8.80;;;11.70;24.50;;;;;;5027086;28;20115;-69
2022/04/13 05:57:12;;;;;;;23.70;10.60;;;11.60;24.30;;;;;;5045227;28;20037;-69
2022/04/13 06:00:39;;;;;;;16.08;9.10;;;11.30;23.90;;;;;;5025383;28;20064;-69
2022/04/13 06:04:03;;;;;;;16.40;9.25;;;11.60;23.90;;;;;;5036597;28;20056;-69
2022/04/13 06:07:28;;;;;;;17.85;9.48;;;12.00;23.10;;;;;;5029530;28;20489;-69
2022/04/13 06:10:54;;;;;;;16.58;9.20;;;12.90;21.70;;;;;;5028133;28;20079;-68
2022/04/13 06:14:19;;;;;;;14.07;9.15;;;13.70;20.00;;;;;;5037593;28;20041;-68
2022/04/13 06:17:44;;;;;;;15.95;9.18;;;14.40;17.70;;;;;;5033428;28;20041;-71
2022/04/13 06:21:10;;;;;;;16.95;8.45;;;14.90;17.20;;;;;;5027839;28;20041;-69
2022/04/13 06:24:35;;;;;;;12.82;8.30;;;15.60;15.80;;;;;;5032527;28;20497;-69
2022/04/13 06:28:01;;;;;;;11.63;7.97;;;16.30;14.90;;;;;;5028979;28;20041;-69
2022/04/13 06:31:26;;;;;;;17.88;10.50;;;16.90;12.60;;;;;;5036727;28;20102;-69
2022/04/13 06:34:51;;;;;;;13.63;8.45;;;16.40;12.60;;;;;;5033567;28;20045;-69
2022/04/13 06:37:39;;;;;;;17.48;9.07;;;17.30;11.90;;;;;;5007094;28;20033;-76
2022/04/13 06:40:45;;;;;;;13.98;8.80;;;17.80;11.20;;;;;;5044514;28;20056;-76
2022/04/13 06:44:10;;;;;;;15.82;8.23;;;19.10;9.80;;;;;;5030793;28;20075;-75
2022/04/13 06:47:36;;;;;;;13.75;9.13;;;19.50;7.40;;;;;;5043566;28;20049;-76
2022/04/13 06:51:03;;;;;;;13.80;8.32;;;19.70;7.70;;;;;;5027884;28;20182;-76
2022/04/13 06:54:27;;;;;;;13.93;8.70;;;21.10;6.70;;;;;;5022876;28;20048;-76
2022/04/13 06:57:52;;;;;;;14.13;8.93;;;21.00;4.80;;;;;;5028392;28;20049;-76
2022/04/13 07:01:17;;;;;;;13.75;8.23;;;21.50;5.00;;;;;;5027112;28;20065;-75
2022/04/13 07:04:42;;;;;;;16.30;8.90;;;22.70;3.80;;;;;;5031494;28;20034;-66
2022/04/13 07:08:08;;;;;;;14.98;8.75;;;22.30;2.80;;;;;;5029326;28;20413;-66
2022/04/13 07:11:33;;;;;;;14.65;10.07;;;22.70;3.00;;;;;;5045480;28;20043;-67
2022/04/13 07:15:00;;;;;;;15.85;10.23;;;22.30;3.60;;;;;;5021541;28;20032;-66
2022/04/13 07:18:25;;;;;;;15.75;8.65;;;22.10;3.40;;;;;;5008991;28;20045;-66
2022/04/13 07:21:49;;;;;;;15.60;9.57;;;22.60;3.60;;;;;;5044226;28;20119;-66
2022/04/13 07:25:15;;;;;;;14.85;10.10;;;23.50;3.10;;;;;;5035768;28;20052;-57
2022/04/13 07:28:40;;;;;;;13.48;9.65;;;23.40;2.40;;;;;;5048806;28;20037;-55
2022/04/13 07:32:06;;;;;;;13.30;8.98;;;23.10;2.10;;;;;;5045106;28;20128;-57
2022/04/13 07:35:31;;;;;;;14.57;9.65;;;23.70;1.50;;;;;;5037114;28;20053;-56
2022/04/13 07:38:56;;;;;;;14.30;9.75;;;23.60;1.30;;;;;;5035939;28;20175;-53
2022/04/13 07:42:21;;;;;;;17.42;9.35;;;24.40;1.10;;;;;;5041702;28;20136;-57
2022/04/13 07:45:47;;;;;;;13.57;8.93;;;24.50;1.00;;;;;;5037297;28;20036;-54
2022/04/13 07:49:12;;;;;;;14.82;9.20;;;24.30;1.00;;;;;;5041776;28;20056;-55
2022/04/13 07:52:38;;;;;;;12.35;8.88;;;24.10;1.00;;;;;;5048081;28;20033;-56
2022/04/13 07:56:03;;;;;;;15.05;9.57;;;24.70;1.00;;;;;;5044252;28;20074;-51
2022/04/13 07:59:29;;;;;;;11.65;8.55;;;25.00;1.00;;;;;;5018778;28;20086;-56
2022/04/13 08:02:54;;;;;;;14.02;9.23;;;25.70;1.00;;;;;;5041088;28;20084;-58
2022/04/13 08:06:19;;;;;;;13.30;8.55;;;25.30;1.00;;;;;;5027585;28;20045;-58
2022/04/13 08:09:44;;;;;;;12.13;8.93;;;25.50;1.00;;;;;;5040188;28;20060;-59
2022/04/13 08:13:10;;;;;;;10.95;8.25;;;24.80;1.00;;;;;;5039999;28;20477;-57
2022/04/13 08:16:35;;;;;;;12.73;8.80;;;25.00;1.00;;;;;;5029193;28;20501;-58
2022/04/13 08:20:01;;;;;;;10.82;8.43;;;24.40;1.00;;;;;;5009669;28;20042;-58
2022/04/13 08:23:26;;;;;;;13.18;9.00;;;25.70;1.00;;;;;;5036501;28;20489;-57
2022/04/13 08:26:51;;;;;;;14.82;9.10;;;26.10;1.00;;;;;;5039827;28;20044;-59
2022/04/13 08:30:17;;;;;;;13.52;8.80;;;25.90;1.00;;;;;;5037900;28;20033;-57
2022/04/13 08:33:42;;;;;;;17.75;9.73;;;25.80;1.00;;;;;;5032462;28;20038;-56
2022/04/13 08:37:07;;;;;;;12.25;8.75;;;24.50;1.00;;;;;;5027887;28;20037;-57
2022/04/13 08:40:33;;;;;;;15.45;8.23;;;24.60;1.00;;;;;;5037578;28;20449;-56
2022/04/13 08:44:01;;;;;;;12.27;8.93;;;25.00;1.00;;;;;;5010894;28;20041;-57
2022/04/13 08:47:26;;;;;;;14.05;8.85;;;25.40;1.00;;;;;;5047090;28;20102;-56
2022/04/13 08:50:52;;;;;;;16.13;10.05;;;24.50;1.00;;;;;;5030329;28;20048;-57
2022/04/13 08:54:17;;;;;;;19.88;11.52;;;23.00;2.00;;;;;;5010807;28;20695;-57
2022/04/13 08:57:42;;;;;;;19.35;10.77;;;22.60;2.90;;;;;;5010734;28;20046;-54
2022/04/13 09:01:08;;;;;;;13.93;9.02;;;22.50;2.90;;;;;;5027872;28;20030;-57
2022/04/13 09:04:33;;;;;;;14.55;8.88;;;22.60;2.50;;;;;;5038930;28;20509;-56
2022/04/13 09:07:59;;;;;;;15.75;8.75;;;22.20;3.00;;;;;;5047080;28;20041;-56
2022/04/13 09:11:24;;;;;;;15.75;9.27;;;22.50;2.80;;;;;;5025773;28;20037;-56
2022/04/13 09:14:49;;;;;;;13.13;8.10;;;23.10;2.60;;;;;;5039053;28;20062;-57
2022/04/13 09:18:15;;;;;;;14.50;9.07;;;23.80;1.60;;;;;;5044170;28;20045;-53
2022/04/13 09:21:40;;;;;;;14.55;8.90;;;25.10;1.80;;;;;;5023460;28;20444;-55
2022/04/13 09:25:05;;;;;;;14.20;9.52;;;25.50;1.00;;;;;;5041989;28;20040;-55
2022/04/13 09:28:31;;;;;;;12.15;8.60;;;25.90;1.00;;;;;;5032580;28;20065;-57
2022/04/13 09:31:56;;;;;;;11.82;9.32;;;25.80;1.00;;;;;;5039809;28;20044;-57
2022/04/13 09:35:21;;;;;;;14.82;9.70;;;24.90;1.00;;;;;;5042076;28;20072;-55
2022/04/13 09:38:47;;;;;;;14.43;9.23;;;24.60;1.00;;;;;;5031370;28;20401;-57
2022/04/13 09:42:15;;;;;;;12.68;8.57;;;24.60;1.00;;;;;;5043901;28;20043;-57
2022/04/13 09:45:43;;;;;;;15.10;10.05;;;24.00;1.00;;;;;;5030014;28;20029;-58
2022/04/13 09:49:06;;;;;;;15.00;10.73;;;23.70;1.30;;;;;;5033299;28;20065;-56
2022/04/13 09:52:31;;;;;;;13.82;9.32;;;23.70;1.60;;;;;;5029454;28;20111;-57
2022/04/13 09:55:59;;;;;;;13.73;9.80;;;24.00;1.20;;;;;;5028567;28;20129;-57
2022/04/13 09:59:25;;;;;;;14.65;10.32;;;25.00;1.40;;;;;;5043123;28;20037;-57
2022/04/13 10:02:56;;;;;;;17.25;10.57;;;25.10;1.00;;;;;;5046292;28;20048;-58
2022/04/13 10:06:22;;;;;;;15.02;10.95;;;25.00;1.00;;;;;;5027530;28;20044;-57
2022/04/13 10:09:47;;;;;;;15.05;10.60;;;25.50;1.00;;;;;;5037962;28;20085;-57
2022/04/13 10:13:28;;;;;;;14.77;9.50;;;24.90;1.00;;;;;;5042385;28;20484;-57
2022/04/13 10:16:56;;;;;;;16.13;9.57;;;23.40;2.50;;;;;;5028081;28;20049;-57
2022/04/13 10:20:18;;;;;;;16.67;10.23;;;22.00;3.80;;;;;;5034826;28;20033;-57
2022/04/13 10:22:59;;;;;;;16.00;10.10;;;20.90;5.10;;;;;;5049372;28;20040;-58
2022/04/13 10:25:29;;;;;;;14.77;9.93;;;20.60;5.90;;;;;;5029594;28;20037;-58
2022/04/13 10:27:57;;;;;;;19.23;11.07;;;20.50;6.00;;;;;;5049466;28;20044;-57
2022/04/13 10:30:31;;;;;;;21.00;11.07;;;20.20;6.70;;;;;;5029422;28;20048;-58
2022/04/13 10:33:01;;;;;;;16.45;9.88;;;20.30;7.10;;;;;;5029530;28;20393;-57
2022/04/13 10:35:28;;;;;;;17.52;9.77;;;20.10;6.80;;;;;;5009019;28;20042;-58
2022/04/13 10:37:55;;;;;;;17.88;10.35;;;20.10;6.80;;;;;;5011015;28;20029;-56
2022/04/13 10:40:25;;;;;;;15.15;10.38;;;19.90;7.50;;;;;;5052265;28;20099;-55
2022/04/13 10:42:52;;;;;;;17.80;11.52;;;19.70;8.00;;;;;;5031459;28;20033;-57
2022/04/13 10:45:18;;;;;;;19.27;11.32;;;19.80;7.80;;;;;;5052567;28;20052;-57
2022/04/13 10:48:31;;;;;;;18.52;10.73;;;19.70;7.90;;;;;;5032078;28;20489;-58
2022/04/13 10:51:55;;;;;;;15.48;9.65;;;19.90;8.10;;;;;;5032748;28;20539;-55
2022/04/13 10:55:27;;;;;;;19.02;10.75;;;19.90;8.40;;;;;;5046540;28;20080;-58
2022/04/13 10:58:31;;;;;;;15.40;9.93;;;19.70;8.70;;;;;;5051326;28;20079;-58
2022/04/13 11:02:06;;;;;;;16.08;8.70;;;20.00;8.30;;;;;;5019481;28;20036;-58
2022/04/13 11:05:31;;;;;;;14.48;9.32;;;20.00;7.30;;;;;;5012913;28;20092;-58
2022/04/13 11:09:08;;;;;;;16.15;9.60;;;20.00;7.80;;;;;;5041313;28;20037;-57
2022/04/13 11:12:34;;;;;;;16.48;9.13;;;20.00;7.50;;;;;;5027812;28;20088;-57
2022/04/13 11:16:05;;;;;;;15.88;9.52;;;20.10;7.40;;;;;;5041116;28;20048;-57
2022/04/13 11:19:06;;;;;;;15.18;9.15;;;20.20;7.10;;;;;;5041314;28;20037;-57
2022/04/13 11:21:51;;;;;;;16.27;9.38;;;20.10;7.60;;;;;;5033883;28;20040;-57
2022/04/13 11:25:02;;;;;;;18.30;10.30;;;20.40;7.80;;;;;;5012837;28;20073;-57
2022/04/13 11:28:34;;;;;;;15.07;8.95;;;20.10;7.30;;;;;;5043193;28;20033;-58
2022/04/13 11:31:57;;;;;;;13.98;8.90;;;20.50;8.00;;;;;;5030479;28;20065;-58
2022/04/13 11:35:12;;;;;;;11.60;7.45;;;20.40;7.70;;;;;;5046271;28;20041;-58
2022/04/13 11:38:43;;;;;;;13.43;9.70;;;20.60;7.60;;;;;;5026494;28;20037;-58
2022/04/13 11:42:09;;;;;;;14.77;8.93;;;20.50;7.10;;;;;;5029759;28;20037;-56
2022/04/13 11:45:40;;;;;;;14.05;8.95;;;20.30;7.70;;;;;;5043673;28;20127;-57
2022/04/13 11:49:12;;;;;;;11.27;7.30;;;20.30;8.20;;;;;;5038725;28;20037;-58
2022/04/13 11:52:36;;;;;;;13.10;7.38;;;20.50;8.60;;;;;;5029681;28;20049;-57
2022/04/13 11:56:04;;;;;;;11.75;7.28;;;20.60;7.20;;;;;;5034788;28;20056;-56
2022/04/13 11:59:30;;;;;;;11.55;7.63;;;20.70;7.00;;;;;;5040068;28;20041;-58
2022/04/13 12:02:55;;;;;;;13.55;7.82;;;20.50;7.90;;;;;;5035829;28;20037;-58
2022/04/13 12:06:25;;;;;;;12.93;7.95;;;20.50;7.60;;;;;;5012082;28;20481;-59
2022/04/13 12:09:29;;;;;;;;;;;20.50;7.30;;;;;;5047510;28;20389;-58
2022/04/13 12:12:55;;;;;;;14.13;7.35;;;20.40;8.30;;;;;;5024333;28;19913;-58
2022/04/13 12:16:22;;;;;;;15.00;8.82;;;20.60;7.90;;;;;;5043117;28;20052;-59
2022/04/13 12:20:00;;;;;;;11.95;7.80;;;20.60;8.10;;;;;;5035527;28;20048;-58
2022/04/13 12:23:38;;;;;;;12.63;6.93;;;20.60;7.10;;;;;;5038178;28;20043;-57
2022/04/13 12:27:12;;;;;;;9.90;6.10;;;20.70;7.00;;;;;;5043277;28;20040;-59
2022/04/13 12:30:50;;;;;;;10.85;6.13;;;20.70;6.80;;;;;;5045774;28;20576;-58
2022/04/13 12:34:18;;;;;;;9.93;6.35;;;20.50;6.00;;;;;;5044869;28;20629;-57
2022/04/13 12:37:05;;;;;;;;;;;20.60;6.80;;;;;;5037394;28;20041;-58
2022/04/13 12:40:10;;;;;;;9.00;4.60;;;20.70;6.50;;;;;;5029166;28;19909;-67
2022/04/13 12:43:39;;;;;;;9.55;5.57;;;20.90;7.20;;;;;;5043267;28;20479;-67
2022/04/13 12:47:04;;;;;;;10.43;6.93;;;21.10;6.00;;;;;;5034052;28;20500;-67
2022/04/13 12:50:38;;;;;;;9.55;6.00;;;20.90;6.10;;;;;;5037912;28;20053;-66
2022/04/13 12:54:04;;;;;;;11.35;6.13;;;20.90;5.70;;;;;;5034434;28;20041;-67
2022/04/13 12:57:29;;;;;;;8.88;5.25;;;21.10;5.90;;;;;;5032825;28;20052;-66
2022/04/13 13:00:55;;;;;;;9.05;5.53;;;21.10;6.10;;;;;;5028370;28;20385;-64
2022/04/13 13:04:06;;;;;;;8.68;5.05;;;21.10;5.60;;;;;;5035683;28;20405;-64
2022/04/13 13:07:35;;;;;;;9.45;6.05;;;21.20;6.40;;;;;;5035302;28;20120;-64
2022/04/13 13:11:03;;;;;;;8.45;5.80;;;21.10;5.80;;;;;;5034528;28;20025;-66
2022/04/13 13:14:28;;;;;;;9.88;5.60;;;21.00;5.80;;;;;;5032538;28;20498;-67
2022/04/13 13:18:00;;;;;;;6.85;4.55;;;20.90;5.30;;;;;;5041569;28;20040;-65
2022/04/13 13:21:31;;;;;;;9.63;4.22;;;21.10;5.60;;;;;;5038117;28;20036;-65
2022/04/13 13:24:46;;;;;;;8.88;5.10;;;21.20;4.90;;;;;;5036271;28;20128;-66
2022/04/13 13:28:21;;;;;;;6.75;4.72;;;21.20;5.40;;;;;;5027184;28;20860;-65
2022/04/13 13:31:46;;;;;;;7.50;4.45;;;21.10;5.20;;;;;;5027059;28;20037;-66
2022/04/13 13:34:54;;;;;;;9.20;4.13;;;21.00;4.40;;;;;;5010088;28;20030;-66
2022/04/13 13:38:05;;;;;;;8.77;4.30;;;20.90;4.30;;;;;;5010268;28;20045;-66
2022/04/13 13:41:31;;;;;;;7.70;4.70;;;20.90;5.10;;;;;;5042096;28;20446;-67
2022/04/13 13:45:02;;;;;;;7.03;4.20;;;21.00;5.00;;;;;;5009910;28;20040;-66
2022/04/13 13:48:28;;;;;;;8.50;4.40;;;21.00;5.30;;;;;;5044042;28;20029;-66
2022/04/13 13:51:54;;;;;;;7.72;4.13;;;20.90;5.00;;;;;;5028441;28;20118;-66
2022/04/13 13:55:18;;;;;;;5.97;3.83;;;21.10;5.30;;;;;;5009650;28;20033;-66
2022/04/13 13:58:47;;;;;;;4.93;3.15;;;21.30;5.30;;;;;;5038469;28;20411;-66
2022/04/13 14:02:12;;;;;;;5.70;3.95;;;21.40;5.80;;;;;;5042191;28;20032;-67
2022/04/13 14:05:37;;;;;;;6.18;3.55;;;21.60;5.60;;;;;;5043738;28;20072;-67
2022/04/13 14:09:03;;;;;;;6.15;3.85;;;21.60;5.30;;;;;;5043299;28;20500;-67
2022/04/13 14:12:28;;;;;;;7.50;4.07;;;21.60;4.90;;;;;;5030913;28;20124;-66
2022/04/13 14:15:53;;;;;;;7.68;4.22;;;21.60;4.50;;;;;;5009680;28;20429;-65
2022/04/13 14:19:19;;;;;;;8.93;4.43;;;21.60;4.90;;;;;;5028546;28;20073;-66
2022/04/13 14:22:44;;;;;;;5.53;3.80;;;21.50;5.50;;;;;;5042929;28;20028;-66
2022/04/13 14:26:09;;;;;;;10.20;4.45;;;21.50;5.60;;;;;;5028874;28;20103;-66
2022/04/13 14:29:35;;;;;;;5.10;3.30;;;21.50;5.60;;;;;;5043606;28;20033;-66
2022/04/13 14:33:00;;;;;;;7.57;3.42;;;21.40;5.70;;;;;;5030646;28;20037;-66
2022/04/13 14:35:46;;;;;;;7.90;3.58;;;21.50;5.70;;;;;;5041139;28;20045;-66
2022/04/13 14:38:12;;;;;;;8.23;4.05;;;21.50;5.80;;;;;;5012129;28;20071;-66
2022/04/13 14:40:38;;;;;;;6.45;4.30;;;21.50;5.60;;;;;;5030731;28;20030;-67
2022/04/13 14:43:03;;;;;;;6.97;4.00;;;21.50;5.60;;;;;;5048232;28;20039;-67
2022/04/13 14:46:09;;;;;;;5.78;3.40;;;21.40;5.70;;;;;;5027705;28;20195;-66
2022/04/13 14:49:34;;;;;;;5.82;3.47;;;21.40;6.10;;;;;;5035116;28;20080;-66
2022/04/13 14:52:59;;;;;;;5.57;3.63;;;21.50;5.80;;;;;;5030576;28;20072;-66
2022/04/13 14:56:25;;;;;;;6.85;3.33;;;21.50;5.60;;;;;;5026461;28;20053;-66
2022/04/13 14:59:50;;;;;;;5.32;3.03;;;21.50;5.80;;;;;;5043068;28;20037;-66
2022/04/13 15:03:18;;;;;;;4.75;2.90;;;21.50;5.90;;;;;;5037433;28;20440;-66
2022/04/13 15:06:44;;;;;;;3.40;2.70;;;21.50;6.50;;;;;;5040706;28;20041;-66
2022/04/13 15:10:09;;;;;;;6.72;3.00;;;21.60;6.10;;;;;;5029065;28;20186;-67
2022/04/13 15:13:35;;;;;;;4.72;2.58;;;21.70;5.80;;;;;;5009199;28;20037;-67
2022/04/13 15:17:00;;;;;;;5.95;3.03;;;21.80;5.60;;;;;;5044819;28;20135;-66
2022/04/13 15:20:25;;;;;;;4.85;2.72;;;21.80;5.60;;;;;;5030673;28;20038;-66
2022/04/13 15:23:51;;;;;;;4.75;2.58;;;21.70;5.10;;;;;;5038611;28;20087;-67
2022/04/13 15:27:16;;;;;;;6.28;3.35;;;21.80;5.60;;;;;;5032409;28;20061;-67
2022/04/13 15:30:41;;;;;;;2.47;2.08;;;21.80;5.80;;;;;;5032420;28;20037;-66
2022/04/13 15:34:07;;;;;;;4.07;2.50;;;21.80;5.90;;;;;;5040307;28;20060;-66
2022/04/13 15:37:32;;;;;;;4.45;2.33;;;21.80;5.90;;;;;;5040504;28;20564;-66
2022/04/13 15:40:58;;;;;;;5.50;2.63;;;21.80;5.10;;;;;;5025774;28;20072;-65
2022/04/13 15:44:26;;;;;;;3.38;2.20;;;21.80;5.40;;;;;;5038550;28;20037;-65
2022/04/13 15:47:51;;;;;;;2.75;1.70;;;21.70;5.00;;;;;;5036662;28;20107;-67
2022/04/13 15:51:20;;;;;;;3.97;2.17;;;21.70;5.70;;;;;;5028536;28;20037;-67
2022/04/13 15:54:45;;;;;;;3.42;1.90;;;21.60;5.40;;;;;;5038601;28;20650;-66
2022/04/13 15:58:10;;;;;;;2.50;1.50;;;21.70;5.90;;;;;;5012054;28;20095;-66
2022/04/13 16:01:36;;;;;;;1.98;1.50;;;21.60;5.80;;;;;;5041458;28;20033;-66
2022/04/13 16:05:01;;;;;;;2.35;1.55;;;21.50;4.40;;;;;;5046054;28;20098;-66
2022/04/13 16:08:26;;;;;;;1.73;1.52;;;21.40;4.10;;;;;;5032236;28;20045;-66
2022/04/13 16:11:52;;;;;;;2.22;1.40;;;21.40;4.70;;;;;;5048762;28;20382;-66
2022/04/13 16:15:17;;;;;;;5.72;2.53;;;21.30;5.00;;;;;;5030772;28;20045;-66
2022/04/13 16:18:43;;;;;;;2.20;1.25;;;21.20;4.60;;;;;;5047772;28;20043;-66
2022/04/13 16:22:08;;;;;;;1.65;1.20;;;21.10;4.90;;;;;;5045844;28;20066;-67
2022/04/13 16:25:33;;;;;;;1.83;1.40;;;21.10;5.30;;;;;;5028530;28;20041;-67
2022/04/13 16:28:59;;;;;;;1.70;1.60;;;20.90;5.90;;;;;;5045456;28;20033;-67
2022/04/13 16:32:25;;;;;;;1.80;1.45;;;20.80;6.40;;;;;;5049348;28;20029;-66
2022/04/13 16:35:50;;;;;;;2.92;1.50;;;20.70;6.40;;;;;;5032572;28;20045;-67
2022/04/13 16:39:15;;;;;;;1.63;1.40;;;20.60;6.60;;;;;;5039837;28;20507;-66
2022/04/13 16:42:42;;;;;;;2.92;1.55;;;20.50;7.50;;;;;;5039489;28;20178;-66
2022/04/13 16:46:06;;;;;;;2.17;1.80;;;20.40;7.00;;;;;;5006805;28;20773;-66
2022/04/13 16:49:31;;;;;;;2.08;1.45;;;20.30;7.50;;;;;;5040729;28;20090;-66
2022/04/13 16:52:56;;;;;;;1.73;1.50;;;20.20;7.70;;;;;;5046322;28;20431;-66
2022/04/13 16:56:22;;;;;;;2.53;1.30;;;20.10;7.80;;;;;;5040175;28;20045;-67
2022/04/13 16:59:47;;;;;;;4.95;1.60;;;19.90;7.70;;;;;;5044212;28;20120;-66
2022/04/13 17:03:15;;;;;;;4.97;1.83;;;19.90;8.00;;;;;;5049223;28;20615;-66
2022/04/13 17:06:21;;;;;;;;;;;19.80;8.20;;;;;;5008558;28;20034;-68